createdAt,value
2023-05-09T00:02:18.485Z,101156.47
2023-05-09T00:05:24.307Z,101134.50
2023-05-09T00:08:26.774Z,101130.59
2023-05-09T00:11:29.591Z,101132.88
2023-05-09T00:14:33.641Z,101130.75
2023-05-09T00:17:38.593Z,101136.75
2023-05-09T00:20:41.210Z,101124.59
2023-05-09T00:23:43.847Z,101125.22
2023-05-09T00:26:46.106Z,101118.59
2023-05-09T00:29:48.685Z,101124.59
2023-05-09T00:32:51.329Z,101115.72
2023-05-09T00:35:54.562Z,101141.53
2023-05-09T00:38:57.321Z,101130.34
2023-05-09T00:42:00.010Z,101106.75
2023-05-09T00:45:02.952Z,101127.84
2023-05-09T00:48:06.214Z,101122.66
2023-05-09T00:51:08.777Z,101136.75
2023-05-09T00:54:12.144Z,101133.78
2023-05-09T00:57:14.714Z,101136.25
2023-05-09T01:00:17.823Z,101129.91
2023-05-09T01:03:20.605Z,101134.31
2023-05-09T01:06:33.012Z,101133.88
2023-05-09T01:09:46.925Z,101133.34
2023-05-09T01:12:55.235Z,101136.38
2023-05-09T01:16:15.428Z,101140.84
2023-05-09T01:19:33.185Z,101140.53
2023-05-09T01:22:37.938Z,101141.16
2023-05-09T01:25:57.854Z,101135.44
2023-05-09T01:29:18.843Z,101129.78
2023-05-09T01:32:25.967Z,101131.94
2023-05-09T01:35:31.564Z,101105.63
2023-05-09T01:38:37.658Z,101124.00
2023-05-09T01:41:40.238Z,101114.63
2023-05-09T01:44:45.930Z,101114.00
2023-05-09T01:47:50.097Z,101095.50
2023-05-09T01:50:54.822Z,101127.03
2023-05-09T01:53:58.580Z,101116.75
2023-05-09T01:57:03.848Z,101092.97
2023-05-09T02:00:09.164Z,101093.09
2023-05-09T02:03:15.349Z,101094.59
2023-05-09T02:06:21.377Z,101093.72
2023-05-09T02:09:24.192Z,101086.41
2023-05-09T02:12:26.875Z,101081.31
2023-05-09T02:15:29.650Z,101106.97
2023-05-09T02:18:32.786Z,101109.59
2023-05-09T02:21:36.247Z,101107.47
2023-05-09T02:24:40.066Z,101103.72
2023-05-09T02:27:46.131Z,101098.97
2023-05-09T02:30:49.945Z,101098.88
2023-05-09T02:33:54.904Z,101102.34
2023-05-09T02:36:57.693Z,101091.13
2023-05-09T02:40:00.344Z,101074.13
2023-05-09T02:43:04.089Z,101076.25
2023-05-09T02:46:06.691Z,101082.16
2023-05-09T02:49:10.205Z,101070.25
2023-05-09T02:52:17.583Z,101069.53
2023-05-09T02:55:20.390Z,101072.00
2023-05-09T02:58:22.787Z,101089.94
2023-05-09T03:01:25.561Z,101075.25
2023-05-09T03:04:28.126Z,101069.12
2023-05-09T03:07:31.216Z,101069.38
2023-05-09T03:10:34.396Z,101091.50
2023-05-09T03:13:37.809Z,101067.69
2023-05-09T03:16:40.290Z,101074.41
2023-05-09T03:19:43.369Z,101092.06
2023-05-09T03:22:45.821Z,101087.87
2023-05-09T03:25:48.513Z,101079.09
2023-05-09T03:28:51.596Z,101076.09
2023-05-09T03:31:55.157Z,101065.50
2023-05-09T03:34:57.889Z,101066.31
2023-05-09T03:38:01.512Z,101090.09
2023-05-09T03:41:04.139Z,101078.97
2023-05-09T03:44:07.992Z,101073.47
2023-05-09T03:47:10.223Z,101103.47
2023-05-09T03:50:13.076Z,101078.53
2023-05-09T03:53:16.312Z,101075.91
2023-05-09T03:56:19.484Z,101105.09
2023-05-09T03:59:22.277Z,101089.75
2023-05-09T04:02:25.678Z,101101.94
2023-05-09T04:05:28.937Z,101105.19
2023-05-09T04:08:32.340Z,101098.28
2023-05-09T04:11:36.080Z,101103.47
2023-05-09T04:14:39.482Z,101108.66
2023-05-09T04:17:42.379Z,101099.50
2023-05-09T04:20:44.900Z,101070.19
2023-05-09T04:23:48.288Z,101110.69
2023-05-09T04:26:51.040Z,101088.28
2023-05-09T04:29:54.163Z,101105.81
2023-05-09T04:32:56.880Z,101093.28
2023-05-09T04:36:00.657Z,101078.72
2023-05-09T04:39:04.021Z,101104.97
2023-05-09T04:42:07.830Z,101110.97
2023-05-09T04:45:11.816Z,101113.22
2023-05-09T04:48:14.981Z,101091.44
2023-05-09T04:51:17.536Z,101089.47
2023-05-09T04:54:21.501Z,101109.41
2023-05-09T04:57:26.573Z,101084.19
2023-05-09T05:00:30.111Z,101117.72
2023-05-09T05:03:33.038Z,101107.97
2023-05-09T05:06:36.203Z,101098.59
2023-05-09T05:09:38.972Z,101090.84
2023-05-09T05:12:41.835Z,101118.50
2023-05-09T05:15:44.574Z,101103.44
2023-05-09T05:18:48.182Z,101119.94
2023-05-09T05:21:50.929Z,101116.25
2023-05-09T05:24:53.735Z,101123.12
2023-05-09T05:27:56.052Z,101095.38
2023-05-09T05:30:58.857Z,101122.09
2023-05-09T05:34:01.932Z,101113.81
2023-05-09T05:37:05.659Z,101101.84
2023-05-09T05:40:08.848Z,101107.19
2023-05-09T05:43:11.925Z,101094.06
2023-05-09T05:46:14.466Z,101113.44
2023-05-09T05:49:17.957Z,101100.81
2023-05-09T05:52:20.468Z,101107.00
2023-05-09T05:55:23.510Z,101108.66
2023-05-09T05:58:26.665Z,101114.69
2023-05-09T06:01:29.469Z,101087.59
2023-05-09T06:04:33.168Z,101109.09
2023-05-09T06:07:35.706Z,101112.69
2023-05-09T06:10:38.432Z,101105.09
2023-05-09T06:13:41.102Z,101111.94
2023-05-09T06:16:44.158Z,101101.72
2023-05-09T06:19:46.605Z,101077.03
2023-05-09T06:22:49.372Z,101114.09
2023-05-09T06:25:51.778Z,101114.63
2023-05-09T06:28:54.461Z,101108.94
2023-05-09T06:31:57.009Z,101109.91
2023-05-09T06:35:01.760Z,101101.91
2023-05-09T06:38:04.147Z,101079.47
2023-05-09T06:41:06.788Z,101097.94
2023-05-09T06:44:09.230Z,101091.06
2023-05-09T06:47:11.858Z,101094.56
2023-05-09T06:50:14.271Z,101096.25
2023-05-09T06:53:17.165Z,101086.50
2023-05-09T06:56:23.111Z,101092.38
2023-05-09T06:59:25.954Z,101078.06
2023-05-09T07:02:28.330Z,101092.91
2023-05-09T07:05:31.442Z,101084.19
2023-05-09T07:08:36.496Z,101086.78
2023-05-09T07:11:39.192Z,101061.41
2023-05-09T07:14:41.968Z,101084.78
2023-05-09T07:17:44.889Z,101090.69
2023-05-09T07:20:47.279Z,101069.56
2023-05-09T07:23:49.987Z,101056.78
2023-05-09T07:26:58.828Z,101068.97
2023-05-09T07:30:01.509Z,101059.28
2023-05-09T07:33:04.098Z,101039.38
2023-05-09T07:36:06.918Z,101038.94
2023-05-09T07:39:09.368Z,101047.91
2023-05-09T07:42:12.014Z,101024.25
2023-05-09T07:45:14.563Z,101034.69
2023-05-09T07:48:17.458Z,101054.59
2023-05-09T07:51:19.879Z,101023.87
2023-05-09T07:54:22.627Z,101040.78
2023-05-09T07:57:25.061Z,101035.31
2023-05-09T08:00:30.665Z,101037.50
2023-05-09T08:03:33.582Z,101003.72
2023-05-09T08:06:36.776Z,100997.66
2023-05-09T08:09:39.445Z,101035.19
2023-05-09T08:12:41.854Z,101027.97
2023-05-09T08:15:44.782Z,101008.06
2023-05-09T08:18:47.233Z,101031.50
2023-05-09T08:21:49.906Z,101017.25
2023-05-09T08:24:52.264Z,101022.41
2023-05-09T08:27:55.020Z,101017.28
2023-05-09T08:30:57.929Z,101014.53
2023-05-09T08:34:01.162Z,100991.56
2023-05-09T08:37:04.433Z,101003.97
2023-05-09T08:40:07.895Z,101016.31
2023-05-09T08:43:12.391Z,101006.66
2023-05-09T08:46:53.970Z,101011.03
2023-05-09T08:49:56.654Z,101011.91
2023-05-09T08:53:02.687Z,100981.63
2023-05-09T08:56:05.691Z,100984.47
2023-05-09T08:59:09.068Z,101001.78
2023-05-09T09:02:14.523Z,100987.81
2023-05-09T09:05:39.636Z,101011.91
2023-05-09T09:08:40.983Z,100998.41
2023-05-09T09:11:44.644Z,100988.09
2023-05-09T09:14:50.162Z,100963.25
2023-05-09T09:17:56.779Z,100977.69
2023-05-09T09:21:09.502Z,100964.84
2023-05-09T09:24:18.150Z,100975.31
2023-05-09T09:27:20.461Z,100987.31
2023-05-09T09:30:26.685Z,100968.87
2023-05-09T09:33:29.593Z,100980.81
2023-05-09T09:36:33.080Z,100993.22
2023-05-09T09:39:35.760Z,100959.03
2023-05-09T09:42:48.861Z,100974.41
2023-05-09T09:45:51.713Z,100988.12
2023-05-09T09:48:57.680Z,100984.91
2023-05-09T09:52:02.784Z,100981.63
2023-05-09T09:55:05.879Z,100960.75
2023-05-09T09:58:18.174Z,100970.47
2023-05-09T10:01:27.611Z,100962.44
2023-05-09T10:04:36.541Z,100983.81
2023-05-09T10:07:39.001Z,100968.22
2023-05-09T10:10:41.892Z,100957.81
2023-05-09T10:13:45.741Z,100964.12
2023-05-09T10:16:49.783Z,100953.72
2023-05-09T10:19:53.053Z,100927.44
2023-05-09T10:22:57.223Z,100938.72
2023-05-09T10:26:09.930Z,100954.97
2023-05-09T10:29:14.811Z,100954.41
2023-05-09T10:32:46.687Z,100943.19
2023-05-09T10:35:52.063Z,100952.34
2023-05-09T10:38:56.337Z,100924.75
2023-05-09T10:42:00.729Z,100951.87
2023-05-09T10:45:03.237Z,100920.84
2023-05-09T10:48:09.009Z,100891.16
2023-05-09T10:51:13.255Z,100941.69
2023-05-09T10:54:30.092Z,100941.03
2023-05-09T10:57:35.846Z,100936.13
2023-05-09T11:00:42.592Z,100927.31
2023-05-09T11:03:56.323Z,100913.34
2023-05-09T11:07:00.592Z,100911.09
2023-05-09T11:10:22.679Z,100913.06
2023-05-09T11:13:30.456Z,100919.50
2023-05-09T11:17:06.738Z,100917.50
2023-05-09T11:20:10.172Z,100928.72
2023-05-09T11:23:17.391Z,100849.97
2023-05-09T11:26:23.710Z,100918.53
2023-05-09T11:29:30.334Z,100894.19
2023-05-09T11:32:45.588Z,100908.69
2023-05-09T11:35:48.685Z,100887.44
2023-05-09T11:39:09.007Z,100897.44
2023-05-09T11:42:11.576Z,100870.94
2023-05-09T11:45:15.672Z,100885.44
2023-05-09T11:48:22.598Z,100851.72
2023-05-09T11:51:25.238Z,100879.72
2023-05-09T11:54:27.956Z,100835.44
2023-05-09T11:57:30.864Z,100888.69
2023-05-09T12:00:33.395Z,100884.50
2023-05-09T12:03:36.461Z,100888.03
2023-05-09T12:06:38.914Z,100875.06
2023-05-09T12:09:43.600Z,100871.63
2023-05-09T12:12:50.337Z,100877.31
2023-05-09T12:16:00.798Z,100865.75
2023-05-09T12:19:05.159Z,100871.00
2023-05-09T12:22:08.285Z,100857.34
2023-05-09T12:25:12.196Z,100846.09
2023-05-09T12:28:16.196Z,100859.31
2023-05-09T12:31:18.853Z,100852.84
2023-05-09T12:34:21.871Z,100850.03
2023-05-09T12:37:24.314Z,100856.84
2023-05-09T12:40:27.906Z,100854.53
2023-05-09T12:44:10.798Z,100832.44
2023-05-09T12:47:13.650Z,100848.44
2023-05-09T12:50:16.120Z,100828.97
2023-05-09T12:53:30.829Z,100830.91
2023-05-09T12:56:35.804Z,100828.59
2023-05-09T12:59:46.710Z,100791.88
2023-05-09T13:02:50.863Z,100819.38
2023-05-09T13:05:58.190Z,100785.00
2023-05-09T13:09:02.511Z,100806.47
2023-05-09T13:12:10.014Z,100809.69
2023-05-09T13:15:13.004Z,100807.50
2023-05-09T13:18:16.104Z,100804.16
2023-05-09T13:21:20.545Z,100777.50
2023-05-09T13:24:23.995Z,100795.66
2023-05-09T13:27:27.905Z,100797.75
2023-05-09T13:30:31.454Z,100798.81
2023-05-09T13:33:34.178Z,100795.09
2023-05-09T13:36:37.431Z,100788.16
2023-05-09T13:39:40.093Z,100782.53
2023-05-09T13:42:42.835Z,100785.78
2023-05-09T13:45:45.778Z,100777.97
2023-05-09T13:48:48.529Z,100787.91
2023-05-09T13:51:50.980Z,100775.47
2023-05-09T13:54:54.830Z,100765.41
2023-05-09T13:57:57.259Z,100782.34
2023-05-09T14:00:59.904Z,100768.56
2023-05-09T14:04:05.503Z,100764.34
2023-05-09T14:07:09.627Z,100762.37
2023-05-09T14:10:13.035Z,100742.78
2023-05-09T14:13:15.799Z,100751.16
2023-05-09T14:16:20.177Z,100739.50
2023-05-09T14:19:25.680Z,100737.84
2023-05-09T14:22:28.391Z,100746.59
2023-05-09T14:25:30.800Z,100741.81
2023-05-09T14:28:33.584Z,100741.56
2023-05-09T14:31:36.303Z,100714.19
2023-05-09T14:34:41.592Z,100736.81
2023-05-09T14:37:44.091Z,100725.53
2023-05-09T14:40:46.853Z,100723.84
2023-05-09T14:43:49.240Z,100719.19
2023-05-09T14:46:51.968Z,100697.09
2023-05-09T14:49:54.538Z,100727.91
2023-05-09T14:52:57.392Z,100724.63
2023-05-09T14:55:59.780Z,100717.81
2023-05-09T14:59:03.814Z,100719.25
2023-05-09T15:02:06.104Z,100716.72
2023-05-09T15:05:11.925Z,100721.00
2023-05-09T15:08:16.787Z,100678.66
2023-05-09T15:11:19.605Z,100714.81
2023-05-09T15:14:22.124Z,100706.41
2023-05-09T15:17:24.775Z,100700.03
2023-05-09T15:20:27.187Z,100665.09
2023-05-09T15:23:29.837Z,100695.75
2023-05-09T15:26:32.399Z,100692.09
2023-05-09T15:29:35.207Z,100688.50
2023-05-09T15:32:41.386Z,100687.06
2023-05-09T15:35:45.162Z,100650.91
2023-05-09T15:38:49.627Z,100656.28
2023-05-09T15:41:52.665Z,100679.97
2023-05-09T15:44:55.036Z,100663.84
2023-05-09T15:47:57.709Z,100659.75
2023-05-09T15:51:00.283Z,100682.22
2023-05-09T15:54:02.993Z,100675.03
2023-05-09T15:57:05.604Z,100673.44
2023-05-09T16:00:10.053Z,100671.00
2023-05-09T16:03:15.358Z,100659.03
2023-05-09T16:06:18.369Z,100644.44
2023-05-09T16:09:20.871Z,100600.22
2023-05-09T16:12:25.207Z,100633.22
2023-05-09T16:15:27.740Z,100638.00
2023-05-09T16:18:31.216Z,100646.09
2023-05-09T16:21:33.865Z,100661.19
2023-05-09T16:24:37.586Z,100658.72
2023-05-09T16:27:40.102Z,100658.66
2023-05-09T16:30:42.873Z,100603.09
2023-05-09T16:33:47.054Z,100638.47
2023-05-09T16:36:50.112Z,100635.12
2023-05-09T16:39:52.826Z,100656.78
2023-05-09T16:42:55.474Z,100600.13
2023-05-09T16:45:57.885Z,100640.69
2023-05-09T16:49:00.555Z,100621.72
2023-05-09T16:52:02.976Z,100628.59
2023-05-09T16:55:06.244Z,100626.84
2023-05-09T16:58:08.575Z,100637.25
2023-05-09T17:01:11.567Z,100621.22
2023-05-09T17:04:17.083Z,100603.03
2023-05-09T17:07:22.007Z,100625.44
2023-05-09T17:10:24.718Z,100626.59
2023-05-09T17:13:28.358Z,100623.41
2023-05-09T17:16:32.390Z,100633.66
2023-05-09T17:19:37.522Z,100603.94
2023-05-09T17:22:39.987Z,100627.13
2023-05-09T17:25:43.597Z,100602.81
2023-05-09T17:28:49.796Z,100635.28
2023-05-09T17:31:52.720Z,100619.56
2023-05-09T17:34:55.667Z,100568.09
2023-05-09T17:37:58.628Z,100627.53
2023-05-09T17:41:01.104Z,100606.50
2023-05-09T17:44:04.119Z,100626.97
2023-05-09T17:47:06.676Z,100600.03
2023-05-09T17:50:10.637Z,100596.41
2023-05-09T17:53:14.064Z,100624.78
2023-05-09T17:56:16.675Z,100597.50
2023-05-09T17:59:19.583Z,100636.63
2023-05-09T18:02:24.194Z,100570.69
2023-05-09T18:05:27.508Z,100630.94
2023-05-09T18:08:31.270Z,100568.47
2023-05-09T18:11:35.293Z,100631.97
2023-05-09T18:14:38.995Z,100615.50
2023-05-09T18:17:44.498Z,100633.00
2023-05-09T18:20:49.112Z,100628.97
2023-05-09T18:23:59.295Z,100563.97
2023-05-09T18:27:03.212Z,100632.47
2023-05-09T18:30:08.122Z,100587.06
2023-05-09T18:33:10.784Z,100648.19
2023-05-09T18:36:15.177Z,100601.41
2023-05-09T18:39:17.733Z,100592.38
2023-05-09T18:42:20.678Z,100542.75
2023-05-09T18:45:23.429Z,100653.72
2023-05-09T18:48:26.239Z,100657.63
2023-05-09T18:51:29.777Z,100650.31
2023-05-09T18:54:32.681Z,100656.50
2023-05-09T18:57:35.078Z,100658.75
2023-05-09T19:00:39.400Z,100657.87
2023-05-09T19:03:45.793Z,100674.44
2023-05-09T19:06:48.714Z,100663.06
2023-05-09T19:09:51.515Z,100642.50
2023-05-09T19:12:54.271Z,100665.94
2023-05-09T19:15:56.699Z,100666.88
2023-05-09T19:18:59.653Z,100663.13
2023-05-09T19:22:02.133Z,100638.78
2023-05-09T19:25:05.035Z,100635.38
2023-05-09T19:28:07.326Z,100632.53
2023-05-09T19:31:10.016Z,100650.69
2023-05-09T19:34:12.713Z,100637.59
2023-05-09T19:37:15.355Z,100642.19
2023-05-09T19:40:18.090Z,100653.19
2023-05-09T19:43:20.853Z,100638.25
2023-05-09T19:46:23.305Z,100658.09
2023-05-09T19:49:26.000Z,100629.94
2023-05-09T19:52:29.624Z,100625.34
2023-05-09T19:55:32.102Z,100648.78
2023-05-09T19:58:34.803Z,100655.59
2023-05-09T20:01:38.599Z,100654.94
2023-05-09T20:04:46.535Z,100626.75
2023-05-09T20:07:49.548Z,100641.13
2023-05-09T20:10:52.826Z,100645.31
2023-05-09T20:13:55.362Z,100645.41
2023-05-09T20:16:58.073Z,100611.13
2023-05-09T20:20:00.838Z,100622.69
2023-05-09T20:23:03.997Z,100647.28
2023-05-09T20:26:06.562Z,100641.19
2023-05-09T20:29:09.268Z,100648.47
2023-05-09T20:32:11.552Z,100637.53
2023-05-09T20:35:14.252Z,100623.00
2023-05-09T20:38:16.765Z,100618.41
2023-05-09T20:41:19.409Z,100618.53
2023-05-09T20:44:21.736Z,100616.59
2023-05-09T20:47:24.578Z,100629.97
2023-05-09T20:50:27.074Z,100622.12
2023-05-09T20:53:31.765Z,100605.16
2023-05-09T20:56:35.631Z,100629.28
2023-05-09T20:59:38.390Z,100631.34
2023-05-09T21:02:40.950Z,100626.97
2023-05-09T21:05:43.692Z,100622.25
2023-05-09T21:08:46.001Z,100627.91
2023-05-09T21:11:48.586Z,100597.25
2023-05-09T21:14:51.152Z,100623.97
2023-05-09T21:17:53.773Z,100597.91
2023-05-09T21:20:56.124Z,100618.91
2023-05-09T21:24:09.095Z,100595.97
2023-05-09T21:27:11.521Z,100614.53
2023-05-09T21:30:15.041Z,100592.84
2023-05-09T21:33:17.506Z,100609.22
2023-05-09T21:36:20.241Z,100588.12
2023-05-09T21:39:22.567Z,100612.34
2023-05-09T21:42:25.268Z,100588.25
2023-05-09T21:45:27.869Z,100615.44
2023-05-09T21:48:30.576Z,100600.94
2023-05-09T21:51:34.900Z,100596.19
2023-05-09T21:54:37.525Z,100617.53
2023-05-09T21:57:39.803Z,100609.34
2023-05-09T22:00:42.418Z,100596.09
2023-05-09T22:03:45.783Z,100586.19
2023-05-09T22:06:48.619Z,100597.25
2023-05-09T22:09:51.763Z,100591.72
2023-05-09T22:12:54.200Z,100590.22
2023-05-09T22:15:56.854Z,100603.00
2023-05-09T22:18:59.191Z,100608.53
2023-05-09T22:22:01.766Z,100588.28
2023-05-09T22:25:05.040Z,100595.31
2023-05-09T22:28:07.700Z,100602.44
2023-05-09T22:31:10.600Z,100600.00
2023-05-09T22:34:13.240Z,100588.28
2023-05-09T22:37:17.022Z,100577.66
2023-05-09T22:40:21.098Z,100588.72
2023-05-09T22:43:25.397Z,100598.62
2023-05-09T22:46:31.462Z,100582.25
2023-05-09T22:49:33.956Z,100608.06
2023-05-09T22:52:36.612Z,100584.78
2023-05-09T22:55:38.992Z,100594.81
2023-05-09T22:58:41.717Z,100606.69
2023-05-09T23:01:44.136Z,100581.00
2023-05-09T23:04:47.010Z,100584.47
2023-05-09T23:11:46.797Z,100598.41
2023-05-09T23:14:49.484Z,100597.72
2023-05-09T23:17:52.110Z,100597.03
2023-05-09T23:20:54.476Z,100572.56
2023-05-09T23:23:57.148Z,100550.47
2023-05-09T23:26:59.539Z,100592.84
2023-05-09T23:30:02.195Z,100601.16
2023-05-09T23:33:04.567Z,100580.88
2023-05-09T23:36:07.656Z,100597.22
2023-05-09T23:39:10.052Z,100575.56
2023-05-09T23:42:12.705Z,100588.94
2023-05-09T23:45:15.111Z,100566.00
2023-05-09T23:48:17.821Z,100558.75
2023-05-09T23:51:21.616Z,100552.75
2023-05-09T23:54:24.499Z,100564.97
2023-05-09T23:57:29.231Z,100550.19
